createdAt,value
2022-12-04T00:01:59.469Z,17.30
2022-12-04T00:12:02.327Z,19.67
2022-12-04T00:22:05.347Z,17.30
2022-12-04T00:32:07.900Z,18.53
2022-12-04T00:42:10.588Z,19.80
2022-12-04T00:52:13.029Z,18.63
2022-12-04T01:02:16.197Z,19.43
2022-12-04T01:12:20.969Z,16.07
2022-12-04T01:22:23.840Z,15.90
2022-12-04T01:32:26.225Z,16.37
2022-12-04T01:42:28.944Z,17.83
2022-12-04T01:52:32.030Z,19.57
2022-12-04T02:02:37.492Z,15.50
2022-12-04T02:12:51.612Z,20.13
2022-12-04T02:23:03.502Z,19.67
2022-12-04T02:33:17.965Z,18.60
2022-12-04T02:43:41.937Z,17.93
2022-12-04T02:54:08.137Z,17.10
2022-12-04T03:04:25.974Z,21.27
2022-12-04T03:14:36.085Z,20.90
2022-12-04T03:24:45.290Z,16.47
2022-12-04T03:35:06.581Z,20.63
2022-12-04T03:45:44.938Z,18.60
2022-12-04T03:55:58.946Z,18.70
2022-12-04T04:06:06.459Z,16.47
2022-12-04T04:16:32.278Z,20.00
2022-12-04T04:37:08.452Z,17.42
2022-12-04T04:47:19.372Z,19.90
2022-12-04T04:57:34.604Z,20.20
2022-12-04T05:07:37.126Z,17.27
2022-12-04T05:17:39.644Z,21.53
2022-12-04T05:27:42.460Z,18.57
2022-12-04T05:37:46.007Z,21.50
2022-12-04T05:47:48.455Z,19.87
2022-12-04T05:57:50.815Z,21.27
2022-12-04T06:07:53.220Z,23.10
2022-12-04T06:17:55.712Z,18.90
2022-12-04T06:27:58.017Z,15.87
2022-12-04T06:38:00.321Z,21.27
2022-12-04T06:48:03.008Z,19.63
2022-12-04T06:58:05.273Z,22.40
2022-12-04T07:08:07.746Z,20.73
2022-12-04T07:18:10.343Z,21.50
2022-12-04T07:28:13.254Z,21.40
2022-12-04T07:38:16.059Z,19.07
2022-12-04T07:48:18.747Z,21.47
2022-12-04T07:58:21.145Z,24.60
2022-12-04T08:08:24.112Z,22.20
2022-12-04T08:18:26.472Z,21.00
2022-12-04T08:28:29.873Z,21.17
2022-12-04T08:38:32.295Z,23.33
2022-12-04T08:48:35.504Z,18.53
2022-12-04T08:58:38.908Z,20.87
2022-12-04T09:08:42.203Z,21.27
2022-12-04T09:18:46.358Z,16.70
2022-12-04T09:28:50.887Z,22.40
2022-12-04T09:38:55.200Z,19.57
2022-12-04T09:49:02.758Z,20.60
2022-12-04T09:59:26.937Z,21.13
2022-12-04T10:09:38.933Z,21.43
2022-12-04T10:19:54.475Z,19.60
2022-12-04T10:30:08.765Z,22.07
2022-12-04T10:40:38.799Z,24.07
2022-12-04T10:50:41.963Z,19.23
2022-12-04T11:00:46.972Z,25.70
2022-12-04T11:11:01.679Z,20.62
2022-12-04T11:21:08.251Z,21.90
2022-12-04T11:31:18.738Z,21.20
2022-12-04T11:41:30.984Z,21.77
2022-12-04T11:51:39.957Z,26.77
2022-12-04T12:02:01.196Z,26.60
2022-12-04T12:12:15.013Z,23.27
2022-12-04T12:22:17.567Z,26.93
2022-12-04T12:32:34.950Z,27.47
2022-12-04T12:42:58.587Z,23.43
2022-12-04T12:53:09.407Z,23.87
2022-12-04T13:03:29.302Z,27.97
2022-12-04T13:13:35.883Z,23.30
2022-12-04T13:23:53.560Z,23.80
2022-12-04T13:34:16.207Z,23.93
2022-12-04T13:44:24.647Z,24.13
2022-12-04T13:54:37.634Z,23.60
2022-12-04T14:04:53.814Z,21.00
2022-12-04T14:15:09.667Z,20.00
2022-12-04T14:25:15.340Z,26.17
2022-12-04T14:35:23.472Z,22.93
2022-12-04T14:45:44.535Z,20.93
2022-12-04T14:56:07.115Z,22.40
2022-12-04T15:06:22.430Z,20.93
2022-12-04T15:16:25.662Z,24.80
2022-12-04T15:26:28.725Z,25.27
2022-12-04T15:36:47.823Z,22.50
2022-12-04T15:46:51.042Z,18.80
2022-12-04T15:57:14.723Z,17.50
2022-12-04T16:07:24.501Z,18.30
2022-12-04T16:17:32.638Z,17.40
2022-12-04T16:27:35.369Z,20.60
2022-12-04T16:37:38.138Z,18.83
2022-12-04T16:47:40.885Z,19.30
2022-12-04T16:57:43.861Z,24.80
2022-12-04T17:07:46.879Z,21.43
2022-12-04T17:17:50.269Z,17.30
2022-12-04T17:27:53.184Z,19.30
2022-12-04T17:37:57.422Z,18.33
2022-12-04T17:48:03.659Z,22.63
2022-12-04T17:58:06.440Z,18.63
2022-12-04T18:08:09.092Z,21.63
2022-12-04T18:18:11.880Z,21.10
2022-12-04T18:28:14.426Z,21.20
2022-12-04T18:38:17.207Z,23.87
2022-12-04T18:48:19.872Z,20.27
2022-12-04T18:58:23.320Z,19.70
2022-12-04T19:08:31.357Z,20.30
2022-12-04T19:18:37.203Z,23.37
2022-12-04T19:28:39.881Z,20.50
2022-12-04T19:38:43.659Z,22.57
2022-12-04T19:48:50.492Z,20.00
2022-12-04T19:58:55.187Z,25.00
2022-12-04T20:09:01.690Z,21.03
2022-12-04T20:19:08.399Z,21.57
2022-12-04T20:29:16.231Z,21.37
2022-12-04T20:39:20.166Z,25.67
2022-12-04T20:49:23.223Z,21.40
2022-12-04T20:59:26.352Z,23.17
2022-12-04T21:09:29.418Z,21.90
2022-12-04T21:19:32.637Z,24.43
2022-12-04T21:29:38.949Z,20.20
2022-12-04T21:39:42.989Z,23.07
2022-12-04T21:49:45.998Z,20.17
2022-12-04T21:59:49.201Z,16.80
2022-12-04T22:09:51.871Z,20.67
2022-12-04T22:19:55.100Z,18.57
2022-12-04T22:29:57.975Z,15.73
2022-12-04T22:40:00.648Z,16.07
2022-12-04T22:50:04.758Z,15.97
2022-12-04T23:00:09.755Z,15.83
2022-12-04T23:10:12.484Z,13.98
2022-12-04T23:20:15.078Z,14.47
2022-12-04T23:30:21.392Z,13.03
2022-12-04T23:40:26.860Z,10.47
2022-12-04T23:50:29.368Z,9.43
